Weather reports worldwide

Advertisment
Carrion de los Condes, Spain (8068): temperature & dewpoint: 17.05.2019 14:00:00 - 23.05.2019 14:00:00 (CEST)Carrion de los Condes, Spain (8068): wind speed & gusts: 17.05.2019 14:00:00 - 23.05.2019 14:00:00 (CEST)Carrion de los Condes, Spain (8068): wind direction: 17.05.2019 14:00:00 - 23.05.2019 14:00:00 (CEST)Carrion de los Condes, Spain (8068): visibility: 17.05.2019 14:00:00 - 23.05.2019 14:00:00 (CEST)Carrion de los Condes, Spain (8068): sunshine duration: 17.05.2019 14:00:00 - 23.05.2019 14:00:00 (CEST)Carrion de los Condes, Spain (8068): precipitation: 17.05.2019 14:00:00 - 23.05.2019 14:00:00 (CEST)
Date & Time tt [°C] td [°C] ff [km/h] ff [kn] fx [km/h] fx [kn] dd vv [km] sd [min] rr [mm]
23.05.2019 14:00:00 - - - - - - - - - -
23.05.2019 13:00:00 19,8 8,8 3 2 9 5 NNW 20 0 0,0
23.05.2019 12:00:00 18,8 8,1 4 2 17 9 NNW 20 0 0,0
23.05.2019 11:00:00 18,3 7,4 5 3 12 6 E 20 35 0,0
23.05.2019 10:00:00 16,4 8,1 6 3 14 7 E 20 19 0,0
23.05.2019 09:00:00 13,6 7,4 4 2 11 6 ENE 20 2 0,0
23.05.2019 08:00:00 10,5 6,2 3 1 11 6 ENE 20 4 -
23.05.2019 07:00:00 9,4 5,1 5 3 16 9 NE 20 0 0,0
23.05.2019 06:00:00 9,4 5,5 6 3 14 8 NE 20 0 0,0
23.05.2019 05:00:00 8,8 5,1 1 1 5 3 NE 20 0 0,0
23.05.2019 04:00:00 10,3 6,1 2 1 8 4 NNE 20 0 0,0
23.05.2019 03:00:00 11,5 6,7 3 2 13 7 ENE 20 0 0,0
23.05.2019 02:00:00 13,4 7,4 6 4 18 10 NNE 20 0 -
23.05.2019 01:00:00 14,3 7,8 10 5 25 13 NE 20 0 0,0
23.05.2019 00:00:00 14,7 7,4 8 4 17 9 NE 20 0 0,0
22.05.2019 23:00:00 13,6 5,5 3 2 12 6 NNE 20 0 0,0
22.05.2019 22:00:00 16,6 5,5 1 1 4 2 NNE 20 0 0,0
22.05.2019 21:00:00 20,5 2,9 1 1 10 6 NNE 20 0 0,0
22.05.2019 20:00:00 23,5 1,1 4 2 16 8 SW 20 38 -
22.05.2019 19:00:00 24,8 1,7 3 2 13 7 SW 20 56 0,0
22.05.2019 18:00:00 25,0 1,9 6 3 16 8 W 20 60 0,0
22.05.2019 17:00:00 25,4 0,9 4 2 19 10 W 20 60 0,0
22.05.2019 16:00:00 24,7 0,9 4 2 21 12 WNW 20 60 0,0
22.05.2019 15:00:00 23,9 1,5 5 3 22 12 WSW 20 60 0,0
22.05.2019 14:00:00 22,7 1,1 5 3 19 10 W 20 60 -
22.05.2019 13:00:00 21,5 0,0 3 2 13 7 WNW 20 60 0,0
22.05.2019 12:00:00 20,2 -1,0 4 2 12 6 NE 20 60 0,0
22.05.2019 11:00:00 17,5 -0,3 5 3 16 9 E 20 60 0,0
22.05.2019 10:00:00 14,8 1,3 5 3 19 10 ENE 20 60 0,0
22.05.2019 09:00:00 11,9 1,3 6 3 14 8 NE 20 60 0,0
22.05.2019 08:00:00 8,7 1,9 4 2 13 7 N 20 25 -
22.05.2019 07:00:00 6,4 2,1 6 3 20 11 N 20 0 0,0
22.05.2019 06:00:00 6,9 2,9 6 3 16 9 N 20 0 0,0
22.05.2019 05:00:00 7,2 3,2 9 5 19 10 N 20 0 0,0
22.05.2019 04:00:00 6,8 4,1 7 4 13 7 N 20 0 0,0
22.05.2019 03:00:00 7,9 5,0 5 3 18 10 NE 20 0 0,0
22.05.2019 02:00:00 9,2 5,8 8 4 21 11 NE 2,6 0 -
22.05.2019 01:00:00 9,8 6,4 7 4 21 12 NE 20 0 0,0
22.05.2019 00:00:00 10,5 6,4 7 4 20 11 NE 20 0 0,0
21.05.2019 23:00:00 11,8 6,2 8 5 21 11 NE 20 0 0,0
21.05.2019 22:00:00 14,3 5,9 9 5 28 15 NE 20 0 0,0
21.05.2019 21:00:00 17,4 3,2 10 5 27 15 ENE 20 0 0,0
21.05.2019 20:00:00 19,9 0,9 6 4 18 10 E 20 40 -
21.05.2019 19:00:00 21,1 0,2 5 3 23 12 NNE 20 56 0,0
21.05.2019 18:00:00 21,4 0,6 5 3 18 10 SE 20 35 0,0
21.05.2019 17:00:00 21,4 1,1 4 2 23 12 ESE 20 50 0,0
21.05.2019 16:00:00 20,6 1,5 8 4 21 12 NE 20 56 0,0
21.05.2019 15:00:00 18,9 1,5 9 5 21 11 NE 20 42 0,0
21.05.2019 14:00:00 19,3 2,7 8 4 23 12 E 20 48 -
21.05.2019 13:00:00 19,1 3,3 8 5 24 13 E - 60 0,0
21.05.2019 12:00:00 17,5 4,1 8 4 23 12 E - 60 0,0
21.05.2019 11:00:00 15,7 3,2 8 5 26 14 E 20 60 0,0
21.05.2019 10:00:00 13,7 2,7 7 4 22 12 ENE 20 60 0,0
21.05.2019 09:00:00 10,8 3,0 8 5 20 11 NE 20 60 0,0
21.05.2019 08:00:00 8,0 3,0 10 5 21 12 NNE 20 24 -
21.05.2019 07:00:00 6,0 3,2 8 4 21 11 NE 20 0 0,0
21.05.2019 06:00:00 6,2 3,9 9 5 22 12 NNE 20 0 0,0
21.05.2019 05:00:00 5,7 4,8 5 3 14 8 NE 19 0 0,0
21.05.2019 04:00:00 6,0 5,0 4 2 21 11 NNE 15 0 0,0
21.05.2019 03:00:00 7,1 5,0 8 5 19 11 NE 20 0 0,0
21.05.2019 02:00:00 7,7 5,1 6 4 23 13 NE 20 0 -
21.05.2019 01:00:00 8,4 5,6 9 5 22 12 NE 20 0 0,0
21.05.2019 00:00:00 9,3 6,1 10 5 21 11 NE 20 0 0,0
20.05.2019 23:00:00 11,0 6,4 9 5 23 12 NE 20 0 0,0
20.05.2019 22:00:00 12,9 3,6 4 2 10 5 NNE 20 0 0,0
20.05.2019 21:00:00 15,4 1,5 5 3 11 6 NE 20 0 0,0
20.05.2019 20:00:00 16,7 0,4 5 3 20 11 NE 20 22 -
20.05.2019 19:00:00 17,7 0,4 3 2 17 9 NNE 20 23 0,0
20.05.2019 18:00:00 18,5 -0,5 4 2 19 10 ESE 20 41 0,0
20.05.2019 17:00:00 18,1 0,6 8 4 21 12 NE 20 52 0,0
20.05.2019 16:00:00 18,3 0,9 4 2 18 10 SW 20 42 0,0
20.05.2019 15:00:00 17,0 1,5 9 5 17 9 N 16 24 0,0
20.05.2019 14:00:00 14,8 1,3 9 5 18 10 NNE 20 44 -
20.05.2019 13:00:00 15,2 2,7 6 3 19 11 ENE 20 57 0,0
20.05.2019 12:00:00 14,2 2,1 9 5 22 12 E 20 60 0,0
20.05.2019 11:00:00 12,7 3,4 9 5 20 11 E 20 60 0,0
20.05.2019 10:00:00 10,1 3,9 6 4 19 11 E 20 60 0,0
20.05.2019 09:00:00 7,5 3,9 8 5 20 11 NE 20 60 0,0
20.05.2019 08:00:00 4,5 3,4 6 3 21 12 NNE 20 24 -
20.05.2019 07:00:00 2,6 2,1 7 4 13 7 N 20 0 0,0
20.05.2019 06:00:00 1,7 1,3 4 2 8 5 N 14 0 0,0
20.05.2019 05:00:00 2,1 1,5 3 2 6 4 N 20 0 0,0
20.05.2019 04:00:00 3,0 2,3 4 2 11 6 NNE 20 0 0,0
20.05.2019 03:00:00 3,2 2,5 5 3 9 5 NNE 20 0 0,0
20.05.2019 02:00:00 4,0 2,7 4 2 14 7 NNE 20 0 -
20.05.2019 01:00:00 4,9 2,7 5 3 13 7 NE 20 0 0,0
20.05.2019 00:00:00 6,1 3,0 5 3 19 11 ENE 20 0 0,0
19.05.2019 23:00:00 7,1 3,6 5 3 18 10 ENE 20 0 0,0
19.05.2019 22:00:00 8,5 3,8 6 4 26 14 NE 20 0 0,0
19.05.2019 21:00:00 11,1 3,8 11 6 28 15 NE 20 0 0,0
19.05.2019 20:00:00 12,5 3,4 11 6 32 17 ENE 20 10 -
19.05.2019 19:00:00 13,1 3,8 14 8 37 20 NE 20 17 0,0
19.05.2019 18:00:00 14,3 2,9 14 8 29 16 NE 20 4 0,0
19.05.2019 17:00:00 17,6 -3,9 4 2 21 11 W 20 33 0,0
19.05.2019 16:00:00 16,3 -2,7 6 3 23 12 NNW 20 47 0,0
19.05.2019 15:00:00 17,2 -2,0 6 4 21 11 SW 20 45 0,0
19.05.2019 14:00:00 15,9 -0,5 4 2 19 10 W 20 37 -
19.05.2019 13:00:00 14,8 -1,4 6 3 23 12 W 20 59 0,0
19.05.2019 12:00:00 13,9 -1,0 5 3 19 10 SSE 20 60 0,0
19.05.2019 11:00:00 12,4 1,9 5 3 11 6 ESE 20 60 0,0
19.05.2019 10:00:00 9,8 1,7 3 1 13 7 SW 20 60 0,0
19.05.2019 09:00:00 7,1 2,1 5 3 16 9 NW 20 60 0,0
19.05.2019 08:00:00 3,4 3,0 2 1 16 9 W 20 25 -
19.05.2019 07:00:00 1,4 1,1 4 2 11 6 W 20 0 0,0
19.05.2019 06:00:00 1,3 0,4 0 0 15 8 N 20 0 0,0
19.05.2019 05:00:00 2,4 0,2 1 1 10 5 NW 20 0 0,0
19.05.2019 04:00:00 3,1 0,9 3 2 9 5 W 20 0 0,0
19.05.2019 03:00:00 3,7 0,9 1 1 8 4 NW 20 0 0,0
19.05.2019 02:00:00 4,6 1,1 1 1 10 5 NW 20 0 -
19.05.2019 01:00:00 6,7 1,5 3 1 18 10 WNW 20 0 0,0
19.05.2019 00:00:00 7,9 1,1 7 4 20 11 N 20 0 0,0
18.05.2019 23:00:00 8,8 1,3 10 6 22 12 NNW 20 0 0,0
18.05.2019 22:00:00 9,4 1,3 8 4 21 12 NNW 20 0 0,0
18.05.2019 21:00:00 11,0 0,4 10 5 26 14 NNW 20 0 0,0
18.05.2019 20:00:00 12,4 0,4 9 5 24 13 NW 20 18 -
18.05.2019 19:00:00 12,8 0,4 7 4 25 13 NNW 20 4 0,0
18.05.2019 18:00:00 13,2 1,5 7 4 31 17 WSW 20 0 0,0
18.05.2019 17:00:00 13,9 1,3 6 3 23 13 W 20 2 0,0
18.05.2019 16:00:00 13,8 0,9 4 2 26 14 W 20 0 0,0
18.05.2019 15:00:00 13,7 1,7 6 3 24 13 W 20 2 0,0
18.05.2019 14:00:00 13,3 2,5 4 2 20 11 SSW 20 0 -
18.05.2019 13:00:00 12,8 2,1 3 2 19 10 WNW 20 0 0,0
18.05.2019 12:00:00 11,8 1,1 4 2 19 11 W 20 29 0,0
18.05.2019 11:00:00 11,6 1,9 4 2 19 11 W 20 60 0,0
18.05.2019 10:00:00 8,6 2,7 4 2 12 6 W 20 59 0,0
18.05.2019 09:00:00 6,1 2,3 3 2 12 7 SSW 20 45 0,0
18.05.2019 08:00:00 3,0 2,5 5 3 11 6 SW 20 24 -
18.05.2019 07:00:00 0,9 0,4 4 2 8 4 SW 20 0 0,0
18.05.2019 06:00:00 1,4 0,6 1 1 6 4 W 20 0 0,0
18.05.2019 05:00:00 1,8 1,1 6 4 13 7 SW 20 0 0,0
18.05.2019 04:00:00 1,9 0,0 2 1 12 7 SSW 20 0 0,0
18.05.2019 03:00:00 3,0 0,9 3 2 9 5 NW 20 0 0,0
18.05.2019 02:00:00 4,3 1,5 3 2 6 3 SSW 20 0 -
18.05.2019 01:00:00 5,7 1,9 2 1 14 7 W 20 0 0,0
18.05.2019 00:00:00 6,8 1,9 3 1 19 10 NW 20 0 0,0
17.05.2019 23:00:00 7,4 1,5 7 4 17 9 NNW 20 0 0,0
17.05.2019 22:00:00 9,4 1,7 5 3 15 8 N 20 0 0,0
17.05.2019 21:00:00 10,7 4,1 5 3 18 10 NE 20 0 0,0
17.05.2019 20:00:00 11,9 3,0 4 2 24 13 ENE 20 0 -
17.05.2019 19:00:00 14,0 2,5 9 5 23 13 N 20 28 0,0
17.05.2019 18:00:00 14,2 3,4 9 5 29 15 N 20 14 0,0
17.05.2019 17:00:00 12,7 3,4 13 7 32 17 N 20 13 0,0
17.05.2019 16:00:00 13,3 2,9 10 5 35 19 NW 20 20 0,0
17.05.2019 15:00:00 15,0 3,4 9 5 34 18 NNW 20 40 0,0
17.05.2019 14:00:00 14,2 3,4 8 4 42 23 WNW 20 28 -

tt = temperature
td = dewpoint
ff = wind speed
fx = gusts
dd = wind direction
vv = visibility
sd = sunshine duration
rr = precipitation

Next stations